sensor_id;sensor_type;location;lat;lon;timestamp;pressure;altitude;pressure_sealevel;temperature;humidity
70338;BME280;57757;53.198;19.646;2022-10-26T00:01:14;100292.19;;;11.36;77.38
70338;BME280;57757;53.198;19.646;2022-10-26T00:03:43;100297.31;;;11.40;77.53
70338;BME280;57757;53.198;19.646;2022-10-26T00:06:23;100297.46;;;11.41;77.50
70338;BME280;57757;53.198;19.646;2022-10-26T00:08:51;100298.77;;;11.44;77.62
70338;BME280;57757;53.198;19.646;2022-10-26T00:11:19;100298.09;;;11.50;77.74
70338;BME280;57757;53.198;19.646;2022-10-26T00:13:47;100299.89;;;11.55;77.61
70338;BME280;57757;53.198;19.646;2022-10-26T00:16:21;100302.36;;;11.60;77.68
70338;BME280;57757;53.198;19.646;2022-10-26T00:18:49;100302.77;;;11.65;77.65
70338;BME280;57757;53.198;19.646;2022-10-26T00:21:17;100301.48;;;11.67;77.58
70338;BME280;57757;53.198;19.646;2022-10-26T00:23:45;100301.25;;;11.70;77.69
70338;BME280;57757;53.198;19.646;2022-10-26T00:26:12;100302.77;;;11.72;77.67
70338;BME280;57757;53.198;19.646;2022-10-26T00:28:40;100301.09;;;11.77;77.73
70338;BME280;57757;53.198;19.646;2022-10-26T00:31:12;100302.09;;;11.79;77.55
70338;BME280;57757;53.198;19.646;2022-10-26T00:33:40;100300.88;;;11.78;77.53
70338;BME280;57757;53.198;19.646;2022-10-26T00:36:08;100302.62;;;11.78;77.44
70338;BME280;57757;53.198;19.646;2022-10-26T00:38:36;100300.55;;;11.77;77.57
70338;BME280;57757;53.198;19.646;2022-10-26T00:41:04;100303.39;;;11.76;77.49
70338;BME280;57757;53.198;19.646;2022-10-26T00:43:34;100304.89;;;11.72;77.39
70338;BME280;57757;53.198;19.646;2022-10-26T00:46:06;100304.40;;;11.69;77.19
70338;BME280;57757;53.198;19.646;2022-10-26T00:48:46;100304.45;;;11.67;77.36
70338;BME280;57757;53.198;19.646;2022-10-26T00:51:26;100300.89;;;11.69;77.53
70338;BME280;57757;53.198;19.646;2022-10-26T00:54:06;100297.27;;;11.69;77.46
70338;BME280;57757;53.198;19.646;2022-10-26T00:56:37;100296.04;;;11.69;77.65
70338;BME280;57757;53.198;19.646;2022-10-26T00:59:08;100297.98;;;11.68;77.58
70338;BME280;57757;53.198;19.646;2022-10-26T01:01:40;100296.06;;;11.68;77.50
70338;BME280;57757;53.198;19.646;2022-10-26T01:04:08;100300.55;;;11.69;77.66
70338;BME280;57757;53.198;19.646;2022-10-26T01:06:37;100300.19;;;11.71;77.73
70338;BME280;57757;53.198;19.646;2022-10-26T01:09:05;100301.41;;;11.71;77.64
70338;BME280;57757;53.198;19.646;2022-10-26T01:11:33;100298.98;;;11.70;77.65
70338;BME280;57757;53.198;19.646;2022-10-26T01:14:03;100296.38;;;11.70;77.57
70338;BME280;57757;53.198;19.646;2022-10-26T01:19:31;100296.91;;;11.62;77.44
70338;BME280;57757;53.198;19.646;2022-10-26T01:22:05;100293.67;;;11.59;77.50
70338;BME280;57757;53.198;19.646;2022-10-26T01:27:44;100295.02;;;11.55;77.53
70338;BME280;57757;53.198;19.646;2022-10-26T01:38:10;100298.00;;;11.54;77.72
70338;BME280;57757;53.198;19.646;2022-10-26T01:40:46;100300.80;;;11.54;77.85
70338;BME280;57757;53.198;19.646;2022-10-26T01:43:17;100303.27;;;11.53;77.70
70338;BME280;57757;53.198;19.646;2022-10-26T01:45:47;100303.27;;;11.53;77.84
70338;BME280;57757;53.198;19.646;2022-10-26T01:48:17;100306.53;;;11.54;77.73
70338;BME280;57757;53.198;19.646;2022-10-26T01:50:51;100305.13;;;11.54;77.68
70338;BME280;57757;53.198;19.646;2022-10-26T01:53:20;100302.13;;;11.49;77.52
70338;BME280;57757;53.198;19.646;2022-10-26T01:55:52;100300.11;;;11.46;77.62
70338;BME280;57757;53.198;19.646;2022-10-26T01:58:43;100302.09;;;11.44;77.57
70338;BME280;57757;53.198;19.646;2022-10-26T02:04:37;100302.00;;;11.47;77.77
70338;BME280;57757;53.198;19.646;2022-10-26T02:09:59;100304.48;;;11.45;77.76
70338;BME280;57757;53.198;19.646;2022-10-26T02:12:44;100304.09;;;11.41;77.76
70338;BME280;57757;53.198;19.646;2022-10-26T02:15:22;100306.02;;;11.40;77.64
70338;BME280;57757;53.198;19.646;2022-10-26T02:17:58;100305.53;;;11.38;77.69
70338;BME280;57757;53.198;19.646;2022-10-26T02:20:32;100307.06;;;11.40;77.71
70338;BME280;57757;53.198;19.646;2022-10-26T02:23:04;100307.33;;;11.43;77.96
70338;BME280;57757;53.198;19.646;2022-10-26T02:25:38;100307.98;;;11.45;77.85
70338;BME280;57757;53.198;19.646;2022-10-26T02:28:12;100308.34;;;11.45;77.84
70338;BME280;57757;53.198;19.646;2022-10-26T02:30:43;100306.05;;;11.45;77.88
70338;BME280;57757;53.198;19.646;2022-10-26T02:33:14;100304.34;;;11.44;77.71
70338;BME280;57757;53.198;19.646;2022-10-26T02:35:45;100302.08;;;11.45;77.79
70338;BME280;57757;53.198;19.646;2022-10-26T02:38:15;100308.95;;;11.41;77.59
70338;BME280;57757;53.198;19.646;2022-10-26T02:40:46;100314.12;;;11.36;77.57
70338;BME280;57757;53.198;19.646;2022-10-26T02:43:17;100317.83;;;11.27;77.40
70338;BME280;57757;53.198;19.646;2022-10-26T02:45:52;100318.11;;;11.23;77.53
70338;BME280;57757;53.198;19.646;2022-10-26T02:48:22;100318.12;;;11.22;77.70
70338;BME280;57757;53.198;19.646;2022-10-26T02:51:00;100315.08;;;11.25;77.86
70338;BME280;57757;53.198;19.646;2022-10-26T02:56:17;100316.15;;;11.25;77.69
70338;BME280;57757;53.198;19.646;2022-10-26T02:58:50;100315.16;;;11.23;77.77
70338;BME280;57757;53.198;19.646;2022-10-26T03:01:20;100318.30;;;11.22;77.76
70338;BME280;57757;53.198;19.646;2022-10-26T03:03:48;100319.80;;;11.24;77.92
70338;BME280;57757;53.198;19.646;2022-10-26T03:06:23;100318.19;;;11.27;77.92
70338;BME280;57757;53.198;19.646;2022-10-26T03:08:51;100321.11;;;11.28;77.85
70338;BME280;57757;53.198;19.646;2022-10-26T03:11:18;100317.73;;;11.24;77.65
70338;BME280;57757;53.198;19.646;2022-10-26T03:13:46;100320.59;;;11.21;77.74
70338;BME280;57757;53.198;19.646;2022-10-26T03:16:13;100325.48;;;11.20;77.77
70338;BME280;57757;53.198;19.646;2022-10-26T03:18:41;100328.34;;;11.16;77.59
70338;BME280;57757;53.198;19.646;2022-10-26T03:21:08;100330.95;;;11.10;77.46
70338;BME280;57757;53.198;19.646;2022-10-26T03:23:36;100337.34;;;11.04;77.46
70338;BME280;57757;53.198;19.646;2022-10-26T03:26:03;100343.73;;;10.99;77.66
70338;BME280;57757;53.198;19.646;2022-10-26T03:28:31;100349.70;;;10.96;77.62
70338;BME280;57757;53.198;19.646;2022-10-26T03:30:58;100353.58;;;10.94;77.64
70338;BME280;57757;53.198;19.646;2022-10-26T03:33:26;100356.56;;;10.92;77.66
70338;BME280;57757;53.198;19.646;2022-10-26T03:35:55;100363.02;;;10.92;77.81
70338;BME280;57757;53.198;19.646;2022-10-26T03:38:25;100359.39;;;10.91;77.72
70338;BME280;57757;53.198;19.646;2022-10-26T03:40:53;100361.51;;;10.89;77.82
70338;BME280;57757;53.198;19.646;2022-10-26T03:43:20;100364.98;;;10.89;77.77
70338;BME280;57757;53.198;19.646;2022-10-26T03:45:48;100366.91;;;10.89;77.90
70338;BME280;57757;53.198;19.646;2022-10-26T03:48:15;100368.36;;;10.86;77.75
70338;BME280;57757;53.198;19.646;2022-10-26T03:50:43;100372.55;;;10.86;77.89
70338;BME280;57757;53.198;19.646;2022-10-26T03:53:11;100379.55;;;10.84;77.75
70338;BME280;57757;53.198;19.646;2022-10-26T03:55:38;100385.73;;;10.79;77.69
70338;BME280;57757;53.198;19.646;2022-10-26T03:58:06;100386.39;;;10.73;77.58
70338;BME280;57757;53.198;19.646;2022-10-26T04:00:33;100385.23;;;10.70;77.79
70338;BME280;57757;53.198;19.646;2022-10-26T04:03:01;100384.88;;;10.70;77.77
70338;BME280;57757;53.198;19.646;2022-10-26T04:05:28;100382.23;;;10.72;77.99
70338;BME280;57757;53.198;19.646;2022-10-26T04:07:58;100382.92;;;10.73;78.01
70338;BME280;57757;53.198;19.646;2022-10-26T04:10:26;100385.20;;;10.72;77.91
70338;BME280;57757;53.198;19.646;2022-10-26T04:12:55;100385.46;;;10.67;77.89
70338;BME280;57757;53.198;19.646;2022-10-26T04:15:24;100381.67;;;10.66;77.84
70338;BME280;57757;53.198;19.646;2022-10-26T04:17:56;100379.03;;;10.67;77.89
70338;BME280;57757;53.198;19.646;2022-10-26T04:20:25;100382.94;;;10.64;77.80
70338;BME280;57757;53.198;19.646;2022-10-26T04:23:01;100383.38;;;10.59;77.81
70338;BME280;57757;53.198;19.646;2022-10-26T04:25:30;100387.93;;;10.57;77.89
70338;BME280;57757;53.198;19.646;2022-10-26T04:28:01;100382.77;;;10.55;77.99
70338;BME280;57757;53.198;19.646;2022-10-26T04:30:30;100387.86;;;10.52;77.82
70338;BME280;57757;53.198;19.646;2022-10-26T04:32:58;100388.43;;;10.50;78.15
70338;BME280;57757;53.198;19.646;2022-10-26T04:35:26;100387.39;;;10.50;78.02
70338;BME280;57757;53.198;19.646;2022-10-26T04:37:58;100390.88;;;10.49;78.09
70338;BME280;57757;53.198;19.646;2022-10-26T04:40:27;100387.41;;;10.49;77.84
70338;BME280;57757;53.198;19.646;2022-10-26T04:42:55;100388.63;;;10.49;78.05
70338;BME280;57757;53.198;19.646;2022-10-26T04:45:23;100385.67;;;10.49;77.97
70338;BME280;57757;53.198;19.646;2022-10-26T04:48:02;100384.83;;;10.47;78.07
70338;BME280;57757;53.198;19.646;2022-10-26T04:50:30;100383.62;;;10.46;78.04
70338;BME280;57757;53.198;19.646;2022-10-26T04:52:57;100387.78;;;10.47;78.05
70338;BME280;57757;53.198;19.646;2022-10-26T04:55:25;100384.11;;;10.49;78.18
70338;BME280;57757;53.198;19.646;2022-10-26T04:57:53;100386.71;;;10.49;78.11
70338;BME280;57757;53.198;19.646;2022-10-26T05:00:26;100384.12;;;10.48;78.14
70338;BME280;57757;53.198;19.646;2022-10-26T05:03:00;100384.45;;;10.49;78.18
70338;BME280;57757;53.198;19.646;2022-10-26T05:05:30;100383.74;;;10.49;78.07
70338;BME280;57757;53.198;19.646;2022-10-26T05:07:58;100385.14;;;10.49;77.97
70338;BME280;57757;53.198;19.646;2022-10-26T05:10:26;100387.70;;;10.52;78.25
70338;BME280;57757;53.198;19.646;2022-10-26T05:12:55;100389.06;;;10.53;78.09
70338;BME280;57757;53.198;19.646;2022-10-26T05:15:23;100395.16;;;10.52;78.12
70338;BME280;57757;53.198;19.646;2022-10-26T05:17:59;100395.83;;;10.54;78.02
70338;BME280;57757;53.198;19.646;2022-10-26T05:20:29;100397.65;;;10.58;78.35
70338;BME280;57757;53.198;19.646;2022-10-26T05:22:59;100399.98;;;10.63;78.22
70338;BME280;57757;53.198;19.646;2022-10-26T05:25:30;100403.38;;;10.68;78.44
70338;BME280;57757;53.198;19.646;2022-10-26T05:28:02;100407.54;;;10.69;78.33
70338;BME280;57757;53.198;19.646;2022-10-26T05:30:31;100412.45;;;10.66;78.00
70338;BME280;57757;53.198;19.646;2022-10-26T05:33:00;100411.15;;;10.62;78.01
70338;BME280;57757;53.198;19.646;2022-10-26T05:35:31;100417.80;;;10.60;77.99
70338;BME280;57757;53.198;19.646;2022-10-26T05:38:06;100414.84;;;10.60;78.02
70338;BME280;57757;53.198;19.646;2022-10-26T05:40:33;100417.61;;;10.60;78.10
70338;BME280;57757;53.198;19.646;2022-10-26T05:43:01;100422.32;;;10.60;78.15
70338;BME280;57757;53.198;19.646;2022-10-26T05:45:29;100425.46;;;10.58;78.08
70338;BME280;57757;53.198;19.646;2022-10-26T05:47:57;100429.67;;;10.57;77.98
70338;BME280;57757;53.198;19.646;2022-10-26T05:50:30;100437.66;;;10.58;78.24
70338;BME280;57757;53.198;19.646;2022-10-26T05:52:58;100443.55;;;10.59;78.08
70338;BME280;57757;53.198;19.646;2022-10-26T05:55:26;100446.84;;;10.60;78.17
70338;BME280;57757;53.198;19.646;2022-10-26T05:57:54;100453.45;;;10.59;78.18
70338;BME280;57757;53.198;19.646;2022-10-26T06:00:24;100452.21;;;10.61;78.35
70338;BME280;57757;53.198;19.646;2022-10-26T06:03:13;100456.39;;;10.60;78.22
70338;BME280;57757;53.198;19.646;2022-10-26T06:06:03;100462.74;;;10.64;78.24
70338;BME280;57757;53.198;19.646;2022-10-26T06:08:34;100465.67;;;10.66;78.11
70338;BME280;57757;53.198;19.646;2022-10-26T06:11:02;100469.81;;;10.59;77.99
70338;BME280;57757;53.198;19.646;2022-10-26T06:13:32;100470.73;;;10.56;78.03
70338;BME280;57757;53.198;19.646;2022-10-26T06:16:13;100472.12;;;10.56;78.05
70338;BME280;57757;53.198;19.646;2022-10-26T06:21:54;100480.14;;;10.54;78.17
70338;BME280;57757;53.198;19.646;2022-10-26T06:27:49;100481.31;;;10.48;78.17
70338;BME280;57757;53.198;19.646;2022-10-26T06:30:19;100481.64;;;10.49;78.23
70338;BME280;57757;53.198;19.646;2022-10-26T06:32:50;100480.38;;;10.51;78.08
70338;BME280;57757;53.198;19.646;2022-10-26T06:35:36;100479.15;;;10.52;78.27
70338;BME280;57757;53.198;19.646;2022-10-26T06:38:20;100479.45;;;10.54;78.17
70338;BME280;57757;53.198;19.646;2022-10-26T06:40:51;100475.23;;;10.57;78.36
70338;BME280;57757;53.198;19.646;2022-10-26T06:43:24;100475.15;;;10.62;78.60
70338;BME280;57757;53.198;19.646;2022-10-26T06:52:17;100477.73;;;10.80;78.40
70338;BME280;57757;53.198;19.646;2022-10-26T06:54:49;100481.73;;;10.89;78.51
70338;BME280;57757;53.198;19.646;2022-10-26T06:57:23;100483.44;;;10.91;78.28
70338;BME280;57757;53.198;19.646;2022-10-26T07:00:09;100482.89;;;10.92;78.20
70338;BME280;57757;53.198;19.646;2022-10-26T07:02:42;100482.98;;;10.96;78.29
70338;BME280;57757;53.198;19.646;2022-10-26T07:05:11;100480.63;;;11.01;78.31
70338;BME280;57757;53.198;19.646;2022-10-26T07:07:44;100482.79;;;11.07;78.20
70338;BME280;57757;53.198;19.646;2022-10-26T07:10:13;100487.23;;;11.11;78.46
70338;BME280;57757;53.198;19.646;2022-10-26T07:12:46;100491.62;;;11.16;78.26
70338;BME280;57757;53.198;19.646;2022-10-26T07:15:24;100492.97;;;11.18;78.12
70338;BME280;57757;53.198;19.646;2022-10-26T07:17:52;100493.20;;;11.24;78.23
70338;BME280;57757;53.198;19.646;2022-10-26T07:20:20;100495.61;;;11.25;77.95
70338;BME280;57757;53.198;19.646;2022-10-26T07:22:53;100498.33;;;11.28;78.07
70338;BME280;57757;53.198;19.646;2022-10-26T07:25:24;100499.19;;;11.29;78.03
70338;BME280;57757;53.198;19.646;2022-10-26T07:27:56;100502.14;;;11.29;77.91
70338;BME280;57757;53.198;19.646;2022-10-26T07:30:26;100504.13;;;11.34;78.02
70338;BME280;57757;53.198;19.646;2022-10-26T07:33:01;100506.82;;;11.39;77.86
70338;BME280;57757;53.198;19.646;2022-10-26T07:35:29;100510.94;;;11.42;77.79
70338;BME280;57757;53.198;19.646;2022-10-26T07:37:57;100512.13;;;11.43;77.75
70338;BME280;57757;53.198;19.646;2022-10-26T07:40:25;100512.16;;;11.41;77.57
70338;BME280;57757;53.198;19.646;2022-10-26T07:42:58;100511.13;;;11.40;77.44
70338;BME280;57757;53.198;19.646;2022-10-26T07:45:27;100510.48;;;11.46;77.65
70338;BME280;57757;53.198;19.646;2022-10-26T07:47:56;100509.05;;;11.56;77.91
70338;BME280;57757;53.198;19.646;2022-10-26T07:50:24;100512.47;;;11.66;77.84
70338;BME280;57757;53.198;19.646;2022-10-26T07:52:52;100516.20;;;11.70;77.83
70338;BME280;57757;53.198;19.646;2022-10-26T07:55:21;100520.02;;;11.73;77.98
70338;BME280;57757;53.198;19.646;2022-10-26T07:57:49;100523.58;;;11.77;77.97
70338;BME280;57757;53.198;19.646;2022-10-26T08:00:21;100523.60;;;11.83;77.82
70338;BME280;57757;53.198;19.646;2022-10-26T08:02:49;100527.86;;;11.88;77.73
70338;BME280;57757;53.198;19.646;2022-10-26T08:05:16;100532.16;;;11.90;77.63
70338;BME280;57757;53.198;19.646;2022-10-26T08:07:45;100531.27;;;11.90;77.49
70338;BME280;57757;53.198;19.646;2022-10-26T08:10:14;100535.58;;;11.93;77.50
70338;BME280;57757;53.198;19.646;2022-10-26T08:12:42;100538.81;;;11.96;77.58
70338;BME280;57757;53.198;19.646;2022-10-26T08:15:10;100542.99;;;11.96;77.43
70338;BME280;57757;53.198;19.646;2022-10-26T08:17:38;100543.62;;;11.92;77.18
70338;BME280;57757;53.198;19.646;2022-10-26T08:20:06;100543.73;;;11.87;76.99
70338;BME280;57757;53.198;19.646;2022-10-26T08:22:35;100552.80;;;11.87;77.19
70338;BME280;57757;53.198;19.646;2022-10-26T08:25:04;100554.04;;;11.85;77.16
70338;BME280;57757;53.198;19.646;2022-10-26T08:27:32;100556.42;;;11.81;77.27
70338;BME280;57757;53.198;19.646;2022-10-26T08:29:59;100560.17;;;11.77;76.99
70338;BME280;57757;53.198;19.646;2022-10-26T08:32:27;100556.52;;;11.77;77.25
70338;BME280;57757;53.198;19.646;2022-10-26T08:34:55;100560.94;;;11.81;77.40
70338;BME280;57757;53.198;19.646;2022-10-26T08:37:23;100562.42;;;11.85;77.52
70338;BME280;57757;53.198;19.646;2022-10-26T08:39:51;100562.34;;;11.88;77.62
70338;BME280;57757;53.198;19.646;2022-10-26T08:42:44;100565.58;;;11.92;77.44
70338;BME280;57757;53.198;19.646;2022-10-26T08:45:24;100566.42;;;11.92;77.25
70338;BME280;57757;53.198;19.646;2022-10-26T08:48:05;100562.02;;;11.95;77.20
70338;BME280;57757;53.198;19.646;2022-10-26T08:50:41;100566.40;;;11.94;77.13
70338;BME280;57757;53.198;19.646;2022-10-26T08:55:58;100564.30;;;11.95;77.07
70338;BME280;57757;53.198;19.646;2022-10-26T08:58:37;100569.63;;;11.98;77.08
70338;BME280;57757;53.198;19.646;2022-10-26T09:01:07;100572.85;;;12.02;77.27
70338;BME280;57757;53.198;19.646;2022-10-26T09:03:35;100572.42;;;12.04;77.17
70338;BME280;57757;53.198;19.646;2022-10-26T09:06:08;100571.14;;;12.08;77.22
70338;BME280;57757;53.198;19.646;2022-10-26T09:16:55;100577.55;;;12.24;77.27
70338;BME280;57757;53.198;19.646;2022-10-26T09:22:31;100586.67;;;12.35;76.98
70338;BME280;57757;53.198;19.646;2022-10-26T09:25:11;100591.80;;;12.33;76.82
70338;BME280;57757;53.198;19.646;2022-10-26T09:27:47;100593.04;;;12.33;76.88
70338;BME280;57757;53.198;19.646;2022-10-26T09:30:19;100593.30;;;12.37;76.88
70338;BME280;57757;53.198;19.646;2022-10-26T09:32:49;100592.93;;;12.37;76.76
70338;BME280;57757;53.198;19.646;2022-10-26T09:35:24;100595.44;;;12.41;76.90
70338;BME280;57757;53.198;19.646;2022-10-26T09:37:56;100601.65;;;12.44;76.73
70338;BME280;57757;53.198;19.646;2022-10-26T09:43:42;100596.62;;;12.36;76.44
70338;BME280;57757;53.198;19.646;2022-10-26T09:46:21;100598.55;;;12.35;76.50
70338;BME280;57757;53.198;19.646;2022-10-26T09:48:55;100597.38;;;12.34;76.58
70338;BME280;57757;53.198;19.646;2022-10-26T09:51:32;100600.41;;;12.31;76.34
70338;BME280;57757;53.198;19.646;2022-10-26T09:54:18;100599.60;;;12.28;76.50
70338;BME280;57757;53.198;19.646;2022-10-26T09:56:51;100598.96;;;12.26;76.72
70338;BME280;57757;53.198;19.646;2022-10-26T09:59:22;100601.63;;;12.24;76.46
70338;BME280;57757;53.198;19.646;2022-10-26T10:01:50;100600.30;;;12.21;76.54
70338;BME280;57757;53.198;19.646;2022-10-26T10:04:20;100604.79;;;12.22;76.75
70338;BME280;57757;53.198;19.646;2022-10-26T10:06:50;100605.67;;;12.29;76.82
70338;BME280;57757;53.198;19.646;2022-10-26T10:09:20;100604.36;;;12.33;77.02
70338;BME280;57757;53.198;19.646;2022-10-26T10:12:04;100609.73;;;12.34;76.57
70338;BME280;57757;53.198;19.646;2022-10-26T10:17:16;100607.84;;;12.26;76.48
70338;BME280;57757;53.198;19.646;2022-10-26T10:19:46;100611.66;;;12.27;76.66
70338;BME280;57757;53.198;19.646;2022-10-26T10:24:42;100616.46;;;12.30;76.43
70338;BME280;57757;53.198;19.646;2022-10-26T10:27:19;100619.73;;;12.24;76.19
70338;BME280;57757;53.198;19.646;2022-10-26T10:29:52;100620.08;;;12.17;76.14
70338;BME280;57757;53.198;19.646;2022-10-26T10:32:30;100617.06;;;12.12;76.38
70338;BME280;57757;53.198;19.646;2022-10-26T10:35:28;100615.14;;;12.12;76.42
70338;BME280;57757;53.198;19.646;2022-10-26T10:37:56;100620.38;;;12.11;76.42
70338;BME280;57757;53.198;19.646;2022-10-26T10:40:29;100620.14;;;12.07;76.15
70338;BME280;57757;53.198;19.646;2022-10-26T10:45:49;100625.52;;;12.08;76.39
70338;BME280;57757;53.198;19.646;2022-10-26T10:48:25;100625.86;;;12.08;76.28
70338;BME280;57757;53.198;19.646;2022-10-26T10:51:20;100627.73;;;12.11;76.39
70338;BME280;57757;53.198;19.646;2022-10-26T10:53:52;100629.95;;;12.12;76.51
70338;BME280;57757;53.198;19.646;2022-10-26T10:59:05;100628.55;;;12.14;76.41
70338;BME280;57757;53.198;19.646;2022-10-26T11:01:39;100627.16;;;12.13;76.30
70338;BME280;57757;53.198;19.646;2022-10-26T11:04:28;100627.52;;;12.11;76.40
70338;BME280;57757;53.198;19.646;2022-10-26T11:07:05;100631.23;;;12.10;76.54
70338;BME280;57757;53.198;19.646;2022-10-26T11:09:36;100626.36;;;12.10;76.44
70338;BME280;57757;53.198;19.646;2022-10-26T11:12:19;100628.25;;;12.11;76.43
70338;BME280;57757;53.198;19.646;2022-10-26T11:14:58;100628.34;;;12.14;76.48
70338;BME280;57757;53.198;19.646;2022-10-26T11:17:42;100635.23;;;12.18;76.55
70338;BME280;57757;53.198;19.646;2022-10-26T11:20:22;100632.30;;;12.16;76.53
70338;BME280;57757;53.198;19.646;2022-10-26T11:31:10;100638.03;;;12.10;76.40
70338;BME280;57757;53.198;19.646;2022-10-26T11:33:43;100645.40;;;12.08;76.40
70338;BME280;57757;53.198;19.646;2022-10-26T11:36:20;100645.83;;;12.04;76.44
70338;BME280;57757;53.198;19.646;2022-10-26T11:38:57;100647.90;;;12.05;76.54
70338;BME280;57757;53.198;19.646;2022-10-26T11:42:00;100650.67;;;12.06;76.51
70338;BME280;57757;53.198;19.646;2022-10-26T11:44:54;100652.40;;;12.06;76.44
70338;BME280;57757;53.198;19.646;2022-10-26T11:47:32;100650.35;;;12.04;76.45
70338;BME280;57757;53.198;19.646;2022-10-26T11:50:22;100646.08;;;12.01;76.42
70338;BME280;57757;53.198;19.646;2022-10-26T11:53:01;100649.46;;;11.98;76.34
70338;BME280;57757;53.198;19.646;2022-10-26T11:55:32;100644.87;;;11.92;76.38
70338;BME280;57757;53.198;19.646;2022-10-26T11:57:59;100645.11;;;11.88;76.44
70338;BME280;57757;53.198;19.646;2022-10-26T12:00:30;100646.38;;;11.87;76.58
70338;BME280;57757;53.198;19.646;2022-10-26T12:03:07;100645.09;;;11.89;76.54
70338;BME280;57757;53.198;19.646;2022-10-26T12:05:47;100647.67;;;11.91;76.60
70338;BME280;57757;53.198;19.646;2022-10-26T12:08:18;100648.38;;;11.91;76.58
70338;BME280;57757;53.198;19.646;2022-10-26T12:19:25;100645.13;;;11.95;76.74
70338;BME280;57757;53.198;19.646;2022-10-26T12:21:56;100644.31;;;12.02;77.01
70338;BME280;57757;53.198;19.646;2022-10-26T12:24:26;100642.55;;;12.10;76.97
70338;BME280;57757;53.198;19.646;2022-10-26T12:26:57;100647.38;;;12.13;76.74
70338;BME280;57757;53.198;19.646;2022-10-26T12:30:12;100648.61;;;12.12;76.71
70338;BME280;57757;53.198;19.646;2022-10-26T12:37:35;100649.38;;;12.17;76.84
70338;BME280;57757;53.198;19.646;2022-10-26T12:48:41;100653.38;;;12.25;76.71
70338;BME280;57757;53.198;19.646;2022-10-26T12:59:56;100654.23;;;12.34;76.74
70338;BME280;57757;53.198;19.646;2022-10-26T13:03:31;100654.39;;;12.34;76.68
70338;BME280;57757;53.198;19.646;2022-10-26T13:08:39;100653.73;;;12.40;76.73
70338;BME280;57757;53.198;19.646;2022-10-26T13:11:27;100654.53;;;12.43;76.82
70338;BME280;57757;53.198;19.646;2022-10-26T13:14:04;100656.83;;;12.49;76.92
70338;BME280;57757;53.198;19.646;2022-10-26T13:16:34;100658.80;;;12.54;76.84
70338;BME280;57757;53.198;19.646;2022-10-26T13:19:01;100661.67;;;12.58;76.72
70338;BME280;57757;53.198;19.646;2022-10-26T13:21:30;100654.67;;;12.66;76.94
70338;BME280;57757;53.198;19.646;2022-10-26T13:23:58;100655.30;;;12.76;76.95
70338;BME280;57757;53.198;19.646;2022-10-26T13:32:51;100650.77;;;12.89;76.63
70338;BME280;57757;53.198;19.646;2022-10-26T13:35:22;100649.91;;;12.88;76.51
70338;BME280;57757;53.198;19.646;2022-10-26T13:37:53;100652.05;;;12.87;76.54
70338;BME280;57757;53.198;19.646;2022-10-26T13:40:26;100647.27;;;12.83;76.48
70338;BME280;57757;53.198;19.646;2022-10-26T13:42:57;100650.34;;;12.85;76.65
70338;BME280;57757;53.198;19.646;2022-10-26T13:45:31;100648.88;;;12.88;76.52
70338;BME280;57757;53.198;19.646;2022-10-26T13:48:04;100650.93;;;12.90;76.38
70338;BME280;57757;53.198;19.646;2022-10-26T13:50:45;100654.61;;;12.88;76.44
70338;BME280;57757;53.198;19.646;2022-10-26T13:55:52;100655.73;;;12.86;76.40
70338;BME280;57757;53.198;19.646;2022-10-26T13:58:30;100659.48;;;12.82;76.27
70338;BME280;57757;53.198;19.646;2022-10-26T14:03:27;100663.08;;;12.78;76.26
70338;BME280;57757;53.198;19.646;2022-10-26T14:05:55;100664.05;;;12.81;76.38
70338;BME280;57757;53.198;19.646;2022-10-26T14:08:24;100658.77;;;12.83;76.38
70338;BME280;57757;53.198;19.646;2022-10-26T14:10:55;100657.16;;;12.84;76.33
70338;BME280;57757;53.198;19.646;2022-10-26T14:13:25;100650.67;;;12.85;76.51
70338;BME280;57757;53.198;19.646;2022-10-26T14:15:55;100650.77;;;12.89;76.43
70338;BME280;57757;53.198;19.646;2022-10-26T14:18:26;100653.66;;;12.92;76.45
70338;BME280;57757;53.198;19.646;2022-10-26T14:21:04;100655.70;;;12.95;76.25
70338;BME280;57757;53.198;19.646;2022-10-26T14:26:00;100656.88;;;12.96;76.35
70338;BME280;57757;53.198;19.646;2022-10-26T14:28:30;100657.98;;;12.94;76.35
70338;BME280;57757;53.198;19.646;2022-10-26T14:33:59;100659.02;;;12.87;76.20
70338;BME280;57757;53.198;19.646;2022-10-26T14:36:32;100662.87;;;12.87;76.15
70338;BME280;57757;53.198;19.646;2022-10-26T14:39:06;100673.61;;;12.83;76.09
70338;BME280;57757;53.198;19.646;2022-10-26T14:41:35;100674.10;;;12.77;76.07
70338;BME280;57757;53.198;19.646;2022-10-26T14:44:03;100681.58;;;12.72;76.11
70338;BME280;57757;53.198;19.646;2022-10-26T14:46:33;100683.19;;;12.69;76.27
70338;BME280;57757;53.198;19.646;2022-10-26T14:49:01;100683.55;;;12.69;76.23
70338;BME280;57757;53.198;19.646;2022-10-26T14:51:33;100682.19;;;12.68;76.16
70338;BME280;57757;53.198;19.646;2022-10-26T14:54:03;100684.33;;;12.66;76.18
70338;BME280;57757;53.198;19.646;2022-10-26T15:02:16;100684.41;;;12.55;76.16
70338;BME280;57757;53.198;19.646;2022-10-26T15:05:15;100688.27;;;12.54;76.20
70338;BME280;57757;53.198;19.646;2022-10-26T15:07:43;100690.79;;;12.52;76.20
70338;BME280;57757;53.198;19.646;2022-10-26T15:13:28;100695.05;;;12.48;76.32
70338;BME280;57757;53.198;19.646;2022-10-26T15:16:07;100691.67;;;12.50;76.48
70338;BME280;57757;53.198;19.646;2022-10-26T15:18:37;100694.78;;;12.52;76.50